Time;durP1;ratioP1;P1;durP2;ratioP2;P2;SDS_P1;SDS_P2;PMS_P1;PMS_P2;Temp;Humidity;BMP_temperature;BMP_pressure;BME280_temperature;BME280_humidity;BME280_pressure;Samples;Min_cycle;Max_cycle;Signal;HPM_P1;HPM_P2
2023/10/27 00:01:07;;;;;;;20.10;13.43;;;;;;;;;;5035250;28;20482;-85
2023/10/27 00:03:32;;;;;;;20.77;13.30;;;;;;;;;;5030386;28;20036;-85
2023/10/27 00:05:57;;;;;;;21.00;12.73;;;;;;;;;;5039418;28;20029;-85
2023/10/27 00:08:23;;;;;;;20.25;12.82;;;;;;;;;;5030077;28;20036;-84
2023/10/27 00:10:48;;;;;;;19.13;12.30;;;;;;;;;;5031610;28;20060;-85
2023/10/27 00:13:14;;;;;;;19.25;12.25;;;;;;;;;;5035565;28;20029;-84
2023/10/27 00:15:39;;;;;;;19.08;11.98;;;;;;;;;;5033427;28;20380;-83
2023/10/27 00:18:04;;;;;;;20.50;12.95;;;;;;;;;;5029051;28;20037;-83
2023/10/27 00:20:30;;;;;;;20.80;12.25;;;;;;;;;;5023159;28;20041;-83
2023/10/27 00:22:55;;;;;;;17.88;11.90;;;;;;;;;;5035758;28;20120;-83
2023/10/27 00:25:21;;;;;;;17.15;11.48;;;;;;;;;;5033731;28;20378;-83
2023/10/27 00:27:46;;;;;;;16.75;11.52;;;;;;;;;;5034324;28;20382;-83
2023/10/27 00:30:12;;;;;;;17.15;11.50;;;;;;;;;;5034047;28;20037;-83
2023/10/27 00:32:37;;;;;;;17.55;12.40;;;;;;;;;;5033698;28;20033;-83
2023/10/27 00:35:04;;;;;;;19.02;12.07;;;;;;;;;;5028793;28;20030;-83
2023/10/27 00:37:33;;;;;;;21.20;13.52;;;;;;;;;;5028532;28;20026;-83
2023/10/27 00:39:58;;;;;;;16.70;11.90;;;;;;;;;;5034204;28;20100;-83
2023/10/27 00:42:23;;;;;;;18.15;12.27;;;;;;;;;;5033595;28;20159;-82
2023/10/27 00:44:49;;;;;;;16.15;11.13;;;;;;;;;;5033849;28;20508;-83
2023/10/27 00:47:14;;;;;;;21.10;12.48;;;;;;;;;;5031206;28;20439;-82
2023/10/27 00:49:39;;;;;;;20.35;13.65;;;;;;;;;;5030497;28;20080;-83
2023/10/27 00:52:05;;;;;;;17.23;12.05;;;;;;;;;;5027774;28;20022;-81
2023/10/27 00:54:31;;;;;;;18.40;12.43;;;;;;;;;;5029216;28;20029;-83
2023/10/27 00:56:57;;;;;;;19.10;12.20;;;;;;;;;;5029252;28;20040;-83
2023/10/27 00:59:22;;;;;;;17.75;12.38;;;;;;;;;;5030271;28;20091;-83
2023/10/27 01:01:48;;;;;;;17.00;11.13;;;;;;;;;;5026389;28;20762;-83
2023/10/27 01:04:14;;;;;;;17.13;11.85;;;;;;;;;;5028599;28;20117;-88
2023/10/27 01:06:40;;;;;;;17.20;11.60;;;;;;;;;;5031526;28;20026;-89
2023/10/27 01:09:05;;;;;;;15.75;11.27;;;;;;;;;;5034526;28;20028;-85
2023/10/27 01:11:31;;;;;;;16.63;11.57;;;;;;;;;;5028257;28;20112;-88
2023/10/27 01:13:57;;;;;;;15.15;10.70;;;;;;;;;;5046787;28;20436;-89
2023/10/27 01:16:22;;;;;;;15.57;10.80;;;;;;;;;;5031940;28;20035;-88
2023/10/27 01:18:47;;;;;;;15.32;11.57;;;;;;;;;;5022610;28;20109;-86
2023/10/27 01:21:13;;;;;;;15.45;10.65;;;;;;;;;;5029852;28;20120;-88
2023/10/27 01:23:38;;;;;;;18.27;12.02;;;;;;;;;;5034056;28;20085;-89
2023/10/27 01:26:04;;;;;;;15.10;10.73;;;;;;;;;;5035010;28;20492;-86
2023/10/27 01:28:30;;;;;;;14.82;10.65;;;;;;;;;;5032199;28;20025;-83
2023/10/27 01:30:56;;;;;;;14.50;10.63;;;;;;;;;;5031241;28;20083;-83
2023/10/27 01:33:22;;;;;;;15.77;11.20;;;;;;;;;;5033093;28;20029;-83
2023/10/27 01:35:48;;;;;;;16.85;10.93;;;;;;;;;;5033592;28;20025;-83
2023/10/27 01:38:13;;;;;;;14.63;10.45;;;;;;;;;;5035771;28;20025;-83
2023/10/27 01:40:38;;;;;;;15.15;10.43;;;;;;;;;;5035254;28;20031;-83
2023/10/27 01:43:04;;;;;;;15.45;10.43;;;;;;;;;;5031097;28;20049;-83
2023/10/27 01:45:29;;;;;;;13.05;10.20;;;;;;;;;;5033448;28;20017;-83
2023/10/27 01:47:54;;;;;;;16.13;10.70;;;;;;;;;;5032333;28;20044;-83
2023/10/27 01:50:20;;;;;;;14.35;9.85;;;;;;;;;;5033029;28;20578;-83
2023/10/27 01:52:45;;;;;;;15.52;10.57;;;;;;;;;;5029598;28;20017;-81
2023/10/27 01:55:11;;;;;;;14.13;10.02;;;;;;;;;;5030629;28;20433;-89
2023/10/27 01:57:36;;;;;;;14.50;10.57;;;;;;;;;;5033750;28;20025;-88
2023/10/27 02:00:03;;;;;;;13.50;10.27;;;;;;;;;;5035376;28;20041;-88
2023/10/27 02:02:29;;;;;;;16.85;10.45;;;;;;;;;;5028990;28;20021;-89
2023/10/27 02:04:54;;;;;;;14.27;10.15;;;;;;;;;;5043318;28;20025;-89
2023/10/27 02:07:24;;;;;;;15.25;10.27;;;;;;;;;;5028641;28;20052;-89
2023/10/27 02:09:50;;;;;;;14.63;10.10;;;;;;;;;;5029209;28;20033;-89
2023/10/27 02:12:16;;;;;;;14.98;11.02;;;;;;;;;;5027438;28;20071;-89
2023/10/27 02:14:41;;;;;;;14.48;10.07;;;;;;;;;;5032493;28;20037;-89
2023/10/27 02:17:07;;;;;;;14.43;10.23;;;;;;;;;;5037895;28;20142;-90
2023/10/27 02:19:32;;;;;;;13.32;9.48;;;;;;;;;;5029324;28;20382;-88
2023/10/27 02:21:57;;;;;;;14.27;9.63;;;;;;;;;;5043803;28;20026;-87
2023/10/27 02:24:23;;;;;;;14.02;9.30;;;;;;;;;;5030471;28;20163;-89
2023/10/27 02:26:48;;;;;;;13.00;9.00;;;;;;;;;;5024786;28;20501;-88
2023/10/27 02:29:13;;;;;;;12.77;9.38;;;;;;;;;;5033586;28;20079;-87
2023/10/27 02:31:39;;;;;;;12.10;8.98;;;;;;;;;;5030644;28;20024;-88
2023/10/27 02:34:04;;;;;;;13.13;9.15;;;;;;;;;;5028007;28;20107;-87
2023/10/27 02:36:30;;;;;;;12.65;8.75;;;;;;;;;;5031091;28;20526;-88
2023/10/27 02:38:55;;;;;;;11.05;8.10;;;;;;;;;;5030810;28;20036;-87
2023/10/27 02:41:21;;;;;;;12.27;8.80;;;;;;;;;;5028474;28;20033;-87
2023/10/27 02:43:46;;;;;;;11.45;8.38;;;;;;;;;;5026345;28;20021;-88
2023/10/27 02:46:13;;;;;;;12.63;8.45;;;;;;;;;;5046722;28;20029;-89
2023/10/27 02:48:41;;;;;;;13.07;8.45;;;;;;;;;;5028331;28;20029;-88
2023/10/27 02:51:07;;;;;;;11.90;8.00;;;;;;;;;;5030429;28;20026;-90
2023/10/27 02:53:32;;;;;;;10.77;8.07;;;;;;;;;;5031277;28;20035;-88
2023/10/27 02:56:07;;;;;;;12.98;8.52;;;;;;;;;;5039047;28;20030;-87
2023/10/27 02:58:33;;;;;;;12.75;8.95;;;;;;;;;;5026444;28;20030;-88
2023/10/27 03:00:58;;;;;;;10.85;8.18;;;;;;;;;;5034003;28;20029;-89
2023/10/27 03:03:27;;;;;;;13.05;8.65;;;;;;;;;;5027714;28;20025;-83
2023/10/27 03:05:52;;;;;;;11.65;8.23;;;;;;;;;;5022069;28;20092;-83
2023/10/27 03:08:18;;;;;;;13.10;8.65;;;;;;;;;;5024623;28;20116;-83
2023/10/27 03:10:43;;;;;;;12.45;8.32;;;;;;;;;;5027086;28;20025;-83
2023/10/27 03:13:08;;;;;;;11.07;7.60;;;;;;;;;;5028889;28;20048;-83
2023/10/27 03:15:35;;;;;;;12.65;7.68;;;;;;;;;;5020643;28;20037;-83
2023/10/27 03:18:01;;;;;;;12.63;8.15;;;;;;;;;;5022718;28;20140;-83
2023/10/27 03:20:26;;;;;;;11.48;7.78;;;;;;;;;;5041870;28;20489;-83
2023/10/27 03:22:51;;;;;;;10.88;7.68;;;;;;;;;;5025954;28;20360;-83
2023/10/27 03:25:17;;;;;;;11.57;8.10;;;;;;;;;;5032265;28;20053;-83
2023/10/27 03:27:43;;;;;;;11.25;8.25;;;;;;;;;;5022797;28;20030;-83
2023/10/27 03:30:09;;;;;;;13.05;7.72;;;;;;;;;;5025185;28;20040;-83
2023/10/27 03:32:35;;;;;;;13.38;8.25;;;;;;;;;;5022762;28;20025;-83
2023/10/27 03:35:00;;;;;;;10.95;7.93;;;;;;;;;;5028570;28;20095;-84
2023/10/27 03:37:26;;;;;;;12.27;8.00;;;;;;;;;;5035569;28;20120;-84
2023/10/27 03:39:51;;;;;;;10.63;7.68;;;;;;;;;;5030723;28;20551;-84
2023/10/27 03:42:16;;;;;;;10.98;8.05;;;;;;;;;;5043513;28;20030;-82
2023/10/27 03:44:42;;;;;;;12.27;7.95;;;;;;;;;;5021355;28;20401;-80
2023/10/27 03:47:08;;;;;;;12.02;7.80;;;;;;;;;;5031587;28;20458;-81
2023/10/27 03:49:33;;;;;;;11.35;7.75;;;;;;;;;;5032508;28;20397;-82
2023/10/27 03:51:59;;;;;;;11.65;7.80;;;;;;;;;;5033896;28;20029;-83
2023/10/27 03:54:25;;;;;;;9.73;7.22;;;;;;;;;;5038148;28;20061;-82
2023/10/27 03:56:51;;;;;;;11.55;7.13;;;;;;;;;;5031237;28;20113;-83
2023/10/27 03:59:19;;;;;;;10.25;7.65;;;;;;;;;;5033472;28;20113;-83
2023/10/27 04:01:44;;;;;;;11.02;7.60;;;;;;;;;;5024100;28;20030;-82
2023/10/27 04:04:09;;;;;;;11.25;7.18;;;;;;;;;;5025543;28;20029;-83
2023/10/27 04:06:35;;;;;;;11.73;7.35;;;;;;;;;;5027285;28;20041;-82
2023/10/27 04:09:02;;;;;;;10.98;7.03;;;;;;;;;;5030322;28;20474;-82
2023/10/27 04:11:27;;;;;;;11.38;7.25;;;;;;;;;;5031735;28;20375;-82
2023/10/27 04:13:53;;;;;;;12.35;7.90;;;;;;;;;;5037483;28;20116;-89
2023/10/27 04:16:18;;;;;;;11.68;7.78;;;;;;;;;;5030362;28;20047;-90
2023/10/27 04:18:44;;;;;;;13.30;8.25;;;;;;;;;;5027946;28;20576;-90
2023/10/27 04:21:10;;;;;;;10.25;6.90;;;;;;;;;;5025666;28;20021;-90
2023/10/27 04:23:36;;;;;;;14.00;8.02;;;;;;;;;;5019648;28;20430;-82
2023/10/27 04:26:01;;;;;;;11.10;7.20;;;;;;;;;;5027035;28;20758;-83
2023/10/27 04:28:27;;;;;;;12.20;7.80;;;;;;;;;;5027347;28;20032;-83
2023/10/27 04:30:53;;;;;;;12.48;7.53;;;;;;;;;;5043862;28;20034;-84
2023/10/27 04:33:20;;;;;;;11.85;7.60;;;;;;;;;;5030005;28;20030;-84
2023/10/27 04:35:45;;;;;;;11.77;7.05;;;;;;;;;;5028541;28;20025;-83
2023/10/27 04:38:10;;;;;;;12.02;7.43;;;;;;;;;;5028540;28;20371;-83
2023/10/27 04:40:36;;;;;;;9.88;6.78;;;;;;;;;;5030549;28;20038;-90
2023/10/27 04:43:03;;;;;;;12.10;7.05;;;;;;;;;;5039211;28;20037;-88
2023/10/27 04:45:28;;;;;;;10.35;6.93;;;;;;;;;;5030643;28;20104;-91
2023/10/27 04:47:54;;;;;;;12.00;7.13;;;;;;;;;;5031038;28;20121;-86
2023/10/27 04:50:20;;;;;;;10.27;6.93;;;;;;;;;;5034719;28;20108;-89
2023/10/27 04:52:45;;;;;;;9.52;6.68;;;;;;;;;;5034169;28;20119;-90
2023/10/27 04:55:11;;;;;;;11.70;6.90;;;;;;;;;;5028777;28;20029;-91
2023/10/27 04:57:36;;;;;;;10.10;6.85;;;;;;;;;;5034504;28;20030;-90
2023/10/27 05:00:04;;;;;;;10.68;7.30;;;;;;;;;;5038985;28;20040;-86
2023/10/27 05:02:30;;;;;;;11.35;6.93;;;;;;;;;;5029166;28;20025;-90
2023/10/27 05:04:55;;;;;;;13.45;7.00;;;;;;;;;;5030060;28;20029;-84
2023/10/27 05:07:21;;;;;;;10.73;6.97;;;;;;;;;;5032669;28;20444;-84
2023/10/27 05:09:46;;;;;;;10.90;6.60;;;;;;;;;;5037188;28;20025;-84
2023/10/27 05:12:11;;;;;;;9.55;6.32;;;;;;;;;;5030454;28;20385;-84
2023/10/27 05:14:37;;;;;;;10.88;7.00;;;;;;;;;;5023629;28;20494;-84
2023/10/27 05:17:04;;;;;;;10.38;6.72;;;;;;;;;;5026288;28;20030;-84
2023/10/27 05:19:29;;;;;;;9.25;6.20;;;;;;;;;;5040149;28;21050;-84
2023/10/27 05:21:54;;;;;;;10.30;6.38;;;;;;;;;;5029395;28;20176;-84
2023/10/27 05:24:20;;;;;;;11.02;6.60;;;;;;;;;;5033284;28;20022;-84
2023/10/27 05:26:45;;;;;;;10.05;6.65;;;;;;;;;;5027916;28;20028;-84
2023/10/27 05:29:10;;;;;;;9.32;5.88;;;;;;;;;;5030979;28;20098;-84
2023/10/27 05:31:36;;;;;;;9.27;6.38;;;;;;;;;;5028775;28;20075;-84
2023/10/27 05:34:01;;;;;;;10.32;6.15;;;;;;;;;;5027474;28;20033;-81
2023/10/27 05:36:27;;;;;;;8.27;5.57;;;;;;;;;;5026903;28;20026;-81
2023/10/27 05:38:52;;;;;;;10.15;6.10;;;;;;;;;;5027858;28;20030;-81
2023/10/27 05:41:18;;;;;;;9.02;6.28;;;;;;;;;;5026380;28;20021;-80
2023/10/27 05:43:43;;;;;;;8.43;5.65;;;;;;;;;;5031926;28;20101;-83
2023/10/27 05:46:10;;;;;;;8.80;5.85;;;;;;;;;;5029405;28;20021;-82
2023/10/27 05:48:36;;;;;;;7.05;4.85;;;;;;;;;;5030742;28;20108;-81
2023/10/27 05:51:03;;;;;;;7.72;5.68;;;;;;;;;;5030783;28;20112;-81
2023/10/27 05:53:28;;;;;;;9.50;4.68;;;;;;;;;;5032317;28;20033;-80
2023/10/27 05:55:56;;;;;;;9.15;5.30;;;;;;;;;;5033075;28;20439;-82
2023/10/27 05:58:30;;;;;;;7.50;5.07;;;;;;;;;;5029247;28;20029;-81
2023/10/27 06:00:56;;;;;;;8.20;5.13;;;;;;;;;;5033618;28;20030;-81
2023/10/27 06:03:23;;;;;;;10.45;6.10;;;;;;;;;;5025391;28;20142;-81
2023/10/27 06:05:54;;;;;;;9.38;5.63;;;;;;;;;;5033109;28;20084;-82
2023/10/27 06:08:20;;;;;;;7.88;5.20;;;;;;;;;;5027766;28;20458;-82
2023/10/27 06:10:45;;;;;;;8.35;5.60;;;;;;;;;;5041462;28;20355;-81
2023/10/27 06:13:12;;;;;;;8.10;5.13;;;;;;;;;;5025273;28;20070;-81
2023/10/27 06:15:38;;;;;;;7.85;5.60;;;;;;;;;;5030013;28;20025;-81
2023/10/27 06:18:03;;;;;;;10.57;5.50;;;;;;;;;;5031497;28;20324;-81
2023/10/27 06:20:29;;;;;;;9.30;5.78;;;;;;;;;;5038810;28;20470;-81
2023/10/27 06:22:54;;;;;;;7.97;5.65;;;;;;;;;;5031246;28;20041;-81
2023/10/27 06:25:25;;;;;;;9.57;6.25;;;;;;;;;;5033158;28;20025;-82
2023/10/27 06:27:54;;;;;;;9.30;6.00;;;;;;;;;;5031904;28;20112;-81
2023/10/27 06:30:21;;;;;;;8.98;6.05;;;;;;;;;;5026167;28;20036;-81
2023/10/27 06:32:47;;;;;;;9.45;5.90;;;;;;;;;;5018145;28;20105;-81
2023/10/27 06:35:13;;;;;;;9.48;5.68;;;;;;;;;;5047720;28;20044;-81
2023/10/27 06:37:38;;;;;;;8.52;5.47;;;;;;;;;;5027407;28;20029;-82
2023/10/27 06:40:04;;;;;;;8.88;6.07;;;;;;;;;;5031469;28;20700;-82
2023/10/27 06:42:30;;;;;;;9.80;6.03;;;;;;;;;;5026716;28;20037;-84
2023/10/27 06:44:56;;;;;;;9.35;5.55;;;;;;;;;;5029907;28;20025;-81
2023/10/27 06:47:21;;;;;;;10.95;6.00;;;;;;;;;;5029984;28;21569;-81
2023/10/27 06:49:46;;;;;;;9.18;6.45;;;;;;;;;;5027068;28;22135;-84
2023/10/27 06:52:13;;;;;;;9.65;5.72;;;;;;;;;;5029882;28;20029;-83
2023/10/27 06:54:40;;;;;;;8.05;5.28;;;;;;;;;;5030510;28;20065;-83
2023/10/27 06:57:06;;;;;;;9.00;6.45;;;;;;;;;;5029072;28;20470;-83
2023/10/27 06:59:32;;;;;;;8.10;5.63;;;;;;;;;;5030831;28;20159;-83
2023/10/27 07:01:59;;;;;;;9.27;6.10;;;;;;;;;;5029430;28;20116;-83
2023/10/27 07:04:24;;;;;;;7.90;5.57;;;;;;;;;;5034746;28;20026;-89
2023/10/27 07:06:49;;;;;;;10.77;6.60;;;;;;;;;;5027305;28;20043;-90
2023/10/27 07:09:15;;;;;;;9.70;5.88;;;;;;;;;;5033139;28;20080;-88
2023/10/27 07:11:41;;;;;;;8.45;5.75;;;;;;;;;;5032653;28;20029;-90
2023/10/27 07:14:06;;;;;;;8.75;5.65;;;;;;;;;;5029665;28;20033;-89
2023/10/27 07:16:31;;;;;;;9.10;5.90;;;;;;;;;;5026985;28;20048;-89
2023/10/27 07:18:57;;;;;;;7.65;5.80;;;;;;;;;;5026708;28;20382;-90
2023/10/27 07:21:22;;;;;;;8.63;5.90;;;;;;;;;;5032429;28;20087;-90
2023/10/27 07:23:48;;;;;;;9.25;6.00;;;;;;;;;;5026574;28;20030;-90
2023/10/27 07:26:15;;;;;;;9.82;6.35;;;;;;;;;;5023892;28;20033;-89
2023/10/27 07:28:41;;;;;;;9.38;6.32;;;;;;;;;;5030949;28;20547;-87
2023/10/27 07:31:08;;;;;;;8.95;6.10;;;;;;;;;;5029297;28;20537;-88
2023/10/27 07:33:33;;;;;;;8.55;5.78;;;;;;;;;;5033843;28;20177;-89
2023/10/27 07:36:00;;;;;;;8.82;6.15;;;;;;;;;;5032621;28;20108;-90
2023/10/27 07:38:26;;;;;;;9.85;6.07;;;;;;;;;;5032489;28;20025;-87
2023/10/27 07:40:56;;;;;;;8.43;5.90;;;;;;;;;;5029330;28;20436;-90
2023/10/27 07:43:21;;;;;;;10.77;6.30;;;;;;;;;;5030471;28;20037;-89
2023/10/27 07:45:47;;;;;;;8.70;5.90;;;;;;;;;;5034378;28;20419;-88
2023/10/27 07:48:12;;;;;;;8.73;6.10;;;;;;;;;;5029138;28;20027;-89
2023/10/27 07:50:40;;;;;;;7.03;5.10;;;;;;;;;;5036042;28;20010;-88
2023/10/27 07:53:05;;;;;;;8.02;5.68;;;;;;;;;;5027158;28;20029;-88
2023/10/27 07:55:31;;;;;;;8.40;5.30;;;;;;;;;;5032732;28;20040;-89
2023/10/27 07:57:56;;;;;;;7.65;5.40;;;;;;;;;;5046891;28;20025;-89
2023/10/27 08:00:21;;;;;;;9.10;5.40;;;;;;;;;;5028639;28;20052;-88
2023/10/27 08:02:47;;;;;;;7.43;5.45;;;;;;;;;;5025712;28;20528;-90
2023/10/27 08:05:14;;;;;;;8.20;5.53;;;;;;;;;;5028020;28;20409;-89
2023/10/27 08:07:39;;;;;;;7.50;5.00;;;;;;;;;;5023560;28;20025;-89
2023/10/27 08:10:07;;;;;;;7.20;5.15;;;;;;;;;;5034207;28;20040;-90
2023/10/27 08:12:35;;;;;;;9.00;5.70;;;;;;;;;;5033308;28;20431;-82
2023/10/27 08:15:05;;;;;;;6.65;5.35;;;;;;;;;;5033631;28;20065;-81
2023/10/27 08:17:33;;;;;;;8.85;5.60;;;;;;;;;;5030268;28;20116;-82
2023/10/27 08:19:58;;;;;;;7.60;5.20;;;;;;;;;;5037233;28;20489;-82
2023/10/27 08:22:24;;;;;;;8.25;5.50;;;;;;;;;;5030551;28;20022;-84
2023/10/27 08:24:49;;;;;;;7.10;4.90;;;;;;;;;;5036671;28;20045;-91
2023/10/27 08:27:14;;;;;;;6.68;4.93;;;;;;;;;;5029692;28;20045;-90
2023/10/27 08:29:40;;;;;;;6.97;4.82;;;;;;;;;;5034256;28;20059;-89
2023/10/27 08:32:05;;;;;;;6.85;4.47;;;;;;;;;;5032299;28;20038;-88
2023/10/27 08:34:31;;;;;;;5.97;4.38;;;;;;;;;;5030529;28;20380;-88
2023/10/27 08:36:57;;;;;;;6.72;4.55;;;;;;;;;;5026310;28;20569;-90
2023/10/27 08:39:24;;;;;;;6.57;4.50;;;;;;;;;;5034979;28;20104;-90
2023/10/27 08:41:49;;;;;;;6.53;4.00;;;;;;;;;;5038298;28;20033;-91
2023/10/27 08:44:16;;;;;;;6.45;4.30;;;;;;;;;;5045746;28;20079;-90
2023/10/27 08:46:42;;;;;;;6.70;4.45;;;;;;;;;;5031813;28;20034;-88
2023/10/27 08:49:08;;;;;;;5.97;4.00;;;;;;;;;;5031655;28;20426;-90
2023/10/27 08:51:35;;;;;;;7.13;4.60;;;;;;;;;;5034333;28;20035;-88
2023/10/27 08:54:01;;;;;;;5.57;4.03;;;;;;;;;;5033720;28;20112;-90
2023/10/27 08:56:26;;;;;;;6.50;3.88;;;;;;;;;;5025394;28;20104;-89
2023/10/27 08:58:52;;;;;;;5.70;4.00;;;;;;;;;;5038455;28;20025;-90
2023/10/27 09:01:17;;;;;;;7.90;4.40;;;;;;;;;;5034254;28;20013;-90
2023/10/27 09:04:05;;;;;;;6.72;3.88;;;;;;;;;;5036302;28;20041;-89
2023/10/27 09:06:30;;;;;;;4.97;3.60;;;;;;;;;;5032123;28;20025;-89
2023/10/27 09:08:56;;;;;;;5.97;3.55;;;;;;;;;;5036293;28;20362;-91
2023/10/27 09:11:21;;;;;;;5.47;3.70;;;;;;;;;;5035458;28;20028;-91
2023/10/27 09:13:47;;;;;;;5.63;3.50;;;;;;;;;;5036507;28;20036;-91
2023/10/27 09:16:24;;;;;;;6.20;3.70;;;;;;;;;;5031800;28;20028;-89
2023/10/27 09:18:51;;;;;;;5.90;3.70;;;;;;;;;;5033992;28;20026;-90
2023/10/27 09:21:29;;;;;;;5.57;3.92;;;;;;;;;;5035624;28;20029;-90
2023/10/27 09:23:54;;;;;;;5.40;3.25;;;;;;;;;;5034774;28;20063;-89
2023/10/27 09:26:20;;;;;;;6.00;3.63;;;;;;;;;;5036815;28;20060;-90
2023/10/27 09:28:46;;;;;;;5.43;3.38;;;;;;;;;;5031464;28;20036;-89
2023/10/27 09:31:11;;;;;;;5.10;3.20;;;;;;;;;;5034122;28;20393;-90
2023/10/27 09:33:36;;;;;;;6.65;4.18;;;;;;;;;;5032754;28;20052;-84
2023/10/27 09:36:02;;;;;;;5.90;4.00;;;;;;;;;;5034400;28;20021;-84
2023/10/27 09:38:28;;;;;;;5.63;4.00;;;;;;;;;;5034629;28;20032;-84
2023/10/27 09:40:56;;;;;;;6.07;4.07;;;;;;;;;;5041272;28;20018;-84
2023/10/27 09:43:25;;;;;;;5.47;3.75;;;;;;;;;;5024872;28;20037;-84
2023/10/27 09:45:55;;;;;;;5.53;3.65;;;;;;;;;;5034989;28;20041;-84
2023/10/27 09:48:26;;;;;;;6.05;4.32;;;;;;;;;;5038083;28;20503;-84
2023/10/27 09:51:04;;;;;;;5.78;4.18;;;;;;;;;;5032759;28;20472;-84
2023/10/27 09:53:30;;;;;;;4.93;3.70;;;;;;;;;;5034319;28;20026;-84
2023/10/27 09:55:58;;;;;;;5.95;3.95;;;;;;;;;;5042445;28;20030;-84
2023/10/27 09:58:35;;;;;;;6.40;4.38;;;;;;;;;;5030020;28;20068;-84
2023/10/27 10:01:02;;;;;;;5.00;3.80;;;;;;;;;;5031076;28;20035;-84
2023/10/27 10:03:28;;;;;;;5.40;3.75;;;;;;;;;;5034064;28;20033;-84
2023/10/27 10:06:14;;;;;;;5.07;3.33;;;;;;;;;;5034450;28;20091;-84
2023/10/27 10:08:43;;;;;;;4.97;3.50;;;;;;;;;;5034758;28;20017;-84
2023/10/27 10:11:13;;;;;;;5.40;3.75;;;;;;;;;;5033015;28;20025;-84
2023/10/27 10:13:38;;;;;;;7.00;3.67;;;;;;;;;;5041664;28;20472;-84
2023/10/27 10:16:05;;;;;;;4.55;3.40;;;;;;;;;;5033107;28;20036;-84
2023/10/27 10:18:33;;;;;;;5.53;3.63;;;;;;;;;;5038245;28;20551;-84
2023/10/27 10:20:59;;;;;;;6.22;3.50;;;;;;;;;;5033278;28;20029;-84
2023/10/27 10:23:50;;;;;;;6.00;3.83;;;;;;;;;;5030619;28;20397;-84
2023/10/27 10:26:16;;;;;;;6.30;4.13;;;;;;;;;;5031721;28;20036;-84
2023/10/27 10:28:41;;;;;;;5.85;3.65;;;;;;;;;;5033702;28;20467;-84
2023/10/27 10:31:06;;;;;;;4.95;3.55;;;;;;;;;;5022858;28;20040;-84
2023/10/27 10:33:33;;;;;;;5.60;4.18;;;;;;;;;;5022967;28;20033;-84
2023/10/27 10:36:14;;;;;;;6.20;3.33;;;;;;;;;;5032182;28;20017;-85
2023/10/27 10:38:43;;;;;;;4.95;3.65;;;;;;;;;;5028575;28;20040;-84
2023/10/27 10:41:09;;;;;;;4.53;3.28;;;;;;;;;;5027644;28;20505;-84
2023/10/27 10:43:36;;;;;;;4.45;3.13;;;;;;;;;;5033246;28;20032;-84
2023/10/27 10:46:13;;;;;;;5.28;3.80;;;;;;;;;;5030470;28;20030;-84
2023/10/27 10:48:44;;;;;;;4.85;3.35;;;;;;;;;;5044178;28;20025;-84
2023/10/27 10:53:55;;;;;;;6.32;4.00;;;;;;;;;;5030013;28;20045;-89
2023/10/27 10:56:22;;;;;;;4.75;3.25;;;;;;;;;;5029310;28;20022;-90
2023/10/27 10:58:47;;;;;;;5.20;3.78;;;;;;;;;;5030582;28;20090;-82
2023/10/27 11:01:18;;;;;;;5.85;3.67;;;;;;;;;;5045874;28;20021;-80
2023/10/27 11:03:48;;;;;;;4.55;3.13;;;;;;;;;;5031794;28;20021;-81
2023/10/27 11:06:14;;;;;;;5.22;3.45;;;;;;;;;;5039674;28;20454;-81
2023/10/27 11:08:39;;;;;;;4.38;3.17;;;;;;;;;;5029420;28;20109;-81
2023/10/27 11:11:06;;;;;;;5.78;3.92;;;;;;;;;;5030748;28;20623;-82
2023/10/27 11:13:38;;;;;;;5.78;4.05;;;;;;;;;;5027311;28;22067;-81
2023/10/27 11:16:12;;;;;;;6.25;3.92;;;;;;;;;;5023803;28;20132;-82
2023/10/27 11:18:38;;;;;;;6.25;4.10;;;;;;;;;;5012790;28;20057;-82
2023/10/27 11:21:03;;;;;;;4.95;3.45;;;;;;;;;;5023923;28;20136;-82
2023/10/27 11:23:30;;;;;;;5.25;3.78;;;;;;;;;;5025062;28;20091;-81
2023/10/27 11:26:03;;;;;;;5.53;3.47;;;;;;;;;;5022931;28;20049;-82
2023/10/27 11:28:29;;;;;;;4.63;3.55;;;;;;;;;;5027130;28;20032;-82
2023/10/27 11:31:20;;;;;;;5.55;3.47;;;;;;;;;;5026317;28;20025;-82
2023/10/27 11:34:06;;;;;;;4.68;3.30;;;;;;;;;;5025948;28;20128;-82
2023/10/27 11:36:43;;;;;;;5.80;3.63;;;;;;;;;;5026165;28;20708;-81
2023/10/27 11:39:15;;;;;;;4.93;3.60;;;;;;;;;;5025405;28;20088;-84
2023/10/27 11:41:53;;;;;;;5.05;3.45;;;;;;;;;;5029368;28;20042;-82
2023/10/27 11:44:19;;;;;;;5.50;3.70;;;;;;;;;;5021630;28;20128;-83
2023/10/27 11:46:53;;;;;;;4.80;3.22;;;;;;;;;;5023581;28;20091;-81
2023/10/27 11:49:20;;;;;;;6.32;4.05;;;;;;;;;;5022841;28;20034;-83
2023/10/27 11:51:47;;;;;;;6.38;3.97;;;;;;;;;;5028438;28;20018;-82
2023/10/27 11:54:13;;;;;;;5.57;3.38;;;;;;;;;;5029499;28;20037;-83
2023/10/27 11:56:38;;;;;;;6.13;4.15;;;;;;;;;;5029511;28;20025;-85
2023/10/27 11:59:04;;;;;;;5.20;3.10;;;;;;;;;;5027773;28;20033;-81
2023/10/27 12:01:30;;;;;;;6.15;3.85;;;;;;;;;;5025208;28;20835;-81
2023/10/27 12:03:56;;;;;;;7.43;3.72;;;;;;;;;;5028824;28;20024;-85
2023/10/27 12:06:21;;;;;;;5.45;3.60;;;;;;;;;;5030538;28;20451;-85
2023/10/27 12:08:47;;;;;;;6.13;3.65;;;;;;;;;;5022021;28;20025;-85
2023/10/27 12:11:14;;;;;;;4.78;2.97;;;;;;;;;;5025961;28;20032;-85
2023/10/27 12:13:40;;;;;;;7.22;4.20;;;;;;;;;;5027315;28;20476;-85
2023/10/27 12:16:06;;;;;;;5.63;3.78;;;;;;;;;;5023659;28;20039;-85
2023/10/27 12:18:32;;;;;;;7.03;3.72;;;;;;;;;;5025248;28;20389;-84
2023/10/27 12:21:00;;;;;;;5.70;3.80;;;;;;;;;;5023203;28;20087;-84
2023/10/27 12:23:29;;;;;;;5.07;3.03;;;;;;;;;;5026983;28;20025;-85
2023/10/27 12:25:56;;;;;;;4.88;3.35;;;;;;;;;;5028126;28;20116;-85
2023/10/27 12:28:23;;;;;;;4.72;3.00;;;;;;;;;;5022419;28;20029;-84
2023/10/27 12:30:49;;;;;;;5.10;3.40;;;;;;;;;;5022011;28;20504;-84
2023/10/27 12:33:14;;;;;;;4.85;3.25;;;;;;;;;;5021570;28;20065;-84
2023/10/27 12:35:40;;;;;;;4.70;2.88;;;;;;;;;;5022364;28;20087;-84
2023/10/27 12:38:05;;;;;;;4.80;3.58;;;;;;;;;;5019853;28;20405;-84
2023/10/27 12:40:34;;;;;;;4.95;2.97;;;;;;;;;;5020796;28;20037;-83
2023/10/27 12:43:00;;;;;;;4.72;2.88;;;;;;;;;;5022070;28;20170;-84
2023/10/27 12:45:25;;;;;;;6.47;4.45;;;;;;;;;;5021378;28;20034;-84
2023/10/27 12:47:50;;;;;;;8.05;5.25;;;;;;;;;;5020665;28;20045;-84
2023/10/27 12:50:16;;;;;;;7.35;5.38;;;;;;;;;;5016433;28;20026;-84
2023/10/27 12:52:42;;;;;;;8.73;6.38;;;;;;;;;;5023057;28;20029;-84
2023/10/27 12:55:09;;;;;;;11.32;8.45;;;;;;;;;;5026675;28;20135;-89
2023/10/27 12:57:35;;;;;;;10.32;7.75;;;;;;;;;;5023293;28;20014;-89
2023/10/27 13:00:01;;;;;;;9.95;8.02;;;;;;;;;;5021808;28;20032;-89
2023/10/27 13:02:27;;;;;;;10.60;7.85;;;;;;;;;;5022156;28;20160;-88
2023/10/27 13:04:53;;;;;;;9.88;8.02;;;;;;;;;;5028601;28;20025;-90
2023/10/27 13:07:19;;;;;;;9.27;7.47;;;;;;;;;;5021953;28;20026;-89
2023/10/27 13:09:45;;;;;;;10.18;7.78;;;;;;;;;;5024462;28;20052;-88
2023/10/27 13:12:11;;;;;;;7.00;4.65;;;;;;;;;;5028415;28;20029;-88
2023/10/27 13:14:40;;;;;;;6.28;4.38;;;;;;;;;;5026938;28;20040;-88
2023/10/27 13:17:09;;;;;;;5.20;4.00;;;;;;;;;;5040894;28;20056;-88
2023/10/27 13:19:35;;;;;;;6.00;3.53;;;;;;;;;;5037100;28;20564;-88
2023/10/27 13:22:01;;;;;;;5.43;3.63;;;;;;;;;;5019196;28;20030;-88
2023/10/27 13:24:31;;;;;;;5.35;3.63;;;;;;;;;;5030107;28;20535;-91
2023/10/27 13:26:57;;;;;;;4.38;3.33;;;;;;;;;;5036214;28;20076;-88
2023/10/27 13:29:22;;;;;;;4.88;3.03;;;;;;;;;;5031896;28;20033;-88
2023/10/27 13:31:48;;;;;;;4.22;3.35;;;;;;;;;;5034944;28;20021;-89
2023/10/27 13:34:13;;;;;;;4.95;3.20;;;;;;;;;;5024248;28;20492;-87
2023/10/27 13:36:42;;;;;;;5.18;3.50;;;;;;;;;;5024602;28;20025;-89
2023/10/27 13:39:10;;;;;;;4.40;3.00;;;;;;;;;;5041576;28;20033;-87
2023/10/27 13:41:36;;;;;;;3.72;2.70;;;;;;;;;;5032980;28;20125;-89
2023/10/27 13:44:05;;;;;;;4.25;3.08;;;;;;;;;;5025536;28;20529;-86
2023/10/27 13:46:35;;;;;;;3.60;2.38;;;;;;;;;;5026951;28;20026;-87
2023/10/27 13:49:01;;;;;;;3.78;2.30;;;;;;;;;;5025894;28;20033;-89
2023/10/27 13:51:26;;;;;;;2.85;2.30;;;;;;;;;;5022515;28;20060;-86
2023/10/27 13:53:53;;;;;;;3.95;2.30;;;;;;;;;;5025312;28;20029;-88
2023/10/27 13:56:21;;;;;;;3.30;2.50;;;;;;;;;;5021598;28;20508;-91
2023/10/27 13:58:46;;;;;;;4.47;2.55;;;;;;;;;;5032961;28;20107;-88
2023/10/27 14:01:12;;;;;;;3.33;2.50;;;;;;;;;;5026754;28;20120;-88
2023/10/27 14:03:40;;;;;;;3.50;2.55;;;;;;;;;;5039758;28;20025;-88
2023/10/27 14:06:11;;;;;;;3.55;2.50;;;;;;;;;;5031146;28;20155;-88
2023/10/27 14:08:37;;;;;;;4.95;2.80;;;;;;;;;;5028992;28;20021;-89
2023/10/27 14:11:05;;;;;;;5.15;2.58;;;;;;;;;;5046747;28;20025;-89
2023/10/27 14:13:32;;;;;;;4.45;2.53;;;;;;;;;;5033241;28;20075;-91
2023/10/27 14:15:57;;;;;;;4.30;2.53;;;;;;;;;;5033732;28;20665;-89
2023/10/27 14:18:23;;;;;;;4.75;3.03;;;;;;;;;;5028657;28;20041;-90
2023/10/27 14:20:51;;;;;;;4.22;3.05;;;;;;;;;;5029952;28;20132;-91
2023/10/27 14:23:16;;;;;;;4.20;3.38;;;;;;;;;;5027222;28;20033;-86
2023/10/27 14:25:42;;;;;;;5.22;3.55;;;;;;;;;;5025141;28;20493;-85
2023/10/27 14:28:09;;;;;;;7.75;3.70;;;;;;;;;;5025243;28;20087;-86
2023/10/27 14:30:36;;;;;;;4.25;3.25;;;;;;;;;;5026538;28;20489;-86
2023/10/27 14:33:01;;;;;;;5.40;2.70;;;;;;;;;;5023736;28;20440;-84
2023/10/27 14:35:29;;;;;;;3.22;2.55;;;;;;;;;;5018818;28;20034;-83